Time;durP1;ratioP1;P1;durP2;ratioP2;P2;SDS_P1;SDS_P2;PMS_P1;PMS_P2;Temp;Humidity;BMP_temperature;BMP_pressure;BME280_temperature;BME280_humidity;BME280_pressure;Samples;Min_cycle;Max_cycle;Signal;HPM_P1;HPM_P2
2023/07/15 00:00:39;;;;;;;0.95;0.95;;;;;;;;;;10283418;28;20260;-75
2023/07/15 00:05:40;;;;;;;1.00;1.00;;;;;;;;;;10285181;28;20327;-75
2023/07/15 00:10:42;;;;;;;0.80;0.77;;;;;;;;;;10272997;28;20259;-75
2023/07/15 00:15:47;;;;;;;1.25;0.93;;;;;;;;;;10279559;28;20217;-76
2023/07/15 00:20:48;;;;;;;0.82;0.82;;;;;;;;;;10295068;28;20354;-77
2023/07/15 00:25:50;;;;;;;0.80;0.80;;;;;;;;;;10283549;28;20216;-76
2023/07/15 00:30:54;;;;;;;2.88;1.30;;;;;;;;;;10285612;28;20225;-75
2023/07/15 00:35:55;;;;;;;1.00;1.00;;;;;;;;;;10283410;28;20271;-75
2023/07/15 00:40:56;;;;;;;1.20;1.10;;;;;;;;;;10285037;28;20217;-76
2023/07/15 00:46:09;;;;;;;0.80;0.80;;;;;;;;;;10297041;28;20212;-76
2023/07/15 00:51:10;;;;;;;2.05;0.95;;;;;;;;;;10302634;28;20225;-75
2023/07/15 00:56:12;;;;;;;1.27;0.95;;;;;;;;;;10291758;28;20299;-75
2023/07/15 01:01:13;;;;;;;1.25;1.15;;;;;;;;;;10289108;28;20641;-75
2023/07/15 01:06:14;;;;;;;2.10;1.35;;;;;;;;;;10307782;28;20221;-75
2023/07/15 01:11:17;;;;;;;1.50;0.85;;;;;;;;;;10316734;28;20225;-76
2023/07/15 01:16:19;;;;;;;0.93;0.93;;;;;;;;;;10330397;28;20224;-75
2023/07/15 01:21:20;;;;;;;1.80;0.80;;;;;;;;;;10332464;28;20733;-75
2023/07/15 01:26:21;;;;;;;0.80;0.80;;;;;;;;;;10326691;28;20231;-75
2023/07/15 01:31:22;;;;;;;2.13;1.08;;;;;;;;;;10326773;28;20741;-75
2023/07/15 01:36:25;;;;;;;2.45;0.93;;;;;;;;;;10338558;28;20220;-75
2023/07/15 01:41:26;;;;;;;0.90;0.90;;;;;;;;;;10329488;28;20216;-76
2023/07/15 01:46:27;;;;;;;1.00;1.00;;;;;;;;;;10320737;28;20716;-74
2023/07/15 01:51:28;;;;;;;1.05;1.05;;;;;;;;;;10340247;28;20228;-75
2023/07/15 01:56:30;;;;;;;1.02;1.02;;;;;;;;;;10310725;28;20216;-75
2023/07/15 02:01:31;;;;;;;1.55;1.38;;;;;;;;;;10295764;28;20632;-75
2023/07/15 02:06:32;;;;;;;1.30;1.20;;;;;;;;;;10333180;28;20722;-77
2023/07/15 02:11:33;;;;;;;0.90;0.90;;;;;;;;;;10344680;28;20318;-75
2023/07/15 02:16:34;;;;;;;1.20;1.20;;;;;;;;;;10339552;28;20204;-75
2023/07/15 02:21:35;;;;;;;1.35;1.27;;;;;;;;;;10323799;28;20227;-76
2023/07/15 02:26:37;;;;;;;0.70;0.70;;;;;;;;;;10327225;28;20239;-75
2023/07/15 02:31:38;;;;;;;6.65;1.30;;;;;;;;;;10338789;28;20765;-74
2023/07/15 02:36:39;;;;;;;1.17;1.17;;;;;;;;;;10321492;28;20212;-74
2023/07/15 02:41:40;;;;;;;1.15;1.05;;;;;;;;;;10327247;28;20246;-75
2023/07/15 02:46:41;;;;;;;1.65;1.55;;;;;;;;;;10334172;28;20223;-76
2023/07/15 02:51:42;;;;;;;3.88;1.40;;;;;;;;;;10329467;28;20225;-75
2023/07/15 02:56:43;;;;;;;1.52;1.35;;;;;;;;;;10337956;28;23243;-76
2023/07/15 03:01:44;;;;;;;1.40;1.02;;;;;;;;;;10326691;28;20597;-75
2023/07/15 03:06:45;;;;;;;2.15;1.30;;;;;;;;;;10327314;28;20232;-75
2023/07/15 03:11:46;;;;;;;1.40;1.35;;;;;;;;;;10326839;28;20228;-75
2023/07/15 03:16:47;;;;;;;1.67;0.95;;;;;;;;;;10304988;28;20875;-75
2023/07/15 03:21:49;;;;;;;1.25;1.25;;;;;;;;;;10323432;28;20220;-75
2023/07/15 03:26:50;;;;;;;0.95;0.95;;;;;;;;;;10316962;28;20240;-75
2023/07/15 03:31:51;;;;;;;1.20;1.10;;;;;;;;;;10325915;28;20242;-74
2023/07/15 03:36:52;;;;;;;1.30;1.30;;;;;;;;;;10324061;28;22509;-75
2023/07/15 03:41:53;;;;;;;1.25;1.25;;;;;;;;;;10312375;28;20235;-75
2023/07/15 03:46:57;;;;;;;1.23;1.13;;;;;;;;;;10324424;28;20257;-75
2023/07/15 03:51:58;;;;;;;1.45;1.35;;;;;;;;;;10315332;28;20247;-75
2023/07/15 03:56:59;;;;;;;1.08;1.08;;;;;;;;;;10330010;28;20279;-75
2023/07/15 04:02:00;;;;;;;1.38;1.27;;;;;;;;;;10323064;28;20216;-77
2023/07/15 04:07:01;;;;;;;1.15;1.15;;;;;;;;;;10324312;28;20278;-74
2023/07/15 04:12:02;;;;;;;1.10;1.10;;;;;;;;;;10315785;28;20228;-75
2023/07/15 04:17:03;;;;;;;2.05;1.25;;;;;;;;;;10308395;28;20212;-75
2023/07/15 04:22:04;;;;;;;1.33;1.23;;;;;;;;;;10334914;28;20223;-75
2023/07/15 04:27:05;;;;;;;6.32;1.58;;;;;;;;;;10343200;28;20231;-75
2023/07/15 04:32:07;;;;;;;1.58;1.08;;;;;;;;;;10346303;28;20749;-75
2023/07/15 04:37:08;;;;;;;2.03;1.02;;;;;;;;;;10338600;28;20219;-75
2023/07/15 04:42:09;;;;;;;1.45;1.35;;;;;;;;;;10339229;28;20596;-75
2023/07/15 04:47:10;;;;;;;1.20;1.20;;;;;;;;;;10337104;28;20226;-75
2023/07/15 04:52:11;;;;;;;1.67;1.42;;;;;;;;;;10316371;28;20224;-75
2023/07/15 04:57:12;;;;;;;4.55;1.70;;;;;;;;;;10333053;28;20211;-76
2023/07/15 05:02:13;;;;;;;1.35;1.35;;;;;;;;;;10315516;28;20989;-75
2023/07/15 05:07:14;;;;;;;4.63;1.20;;;;;;;;;;10327888;28;20228;-75
2023/07/15 05:12:15;;;;;;;1.10;1.10;;;;;;;;;;10328025;28;20234;-75
2023/07/15 05:17:16;;;;;;;1.35;1.35;;;;;;;;;;10331138;28;20263;-75
2023/07/15 05:22:18;;;;;;;1.02;1.02;;;;;;;;;;10333759;28;20222;-75
2023/07/15 05:27:19;;;;;;;2.05;1.38;;;;;;;;;;10336619;28;20216;-75
2023/07/15 05:32:20;;;;;;;1.42;1.33;;;;;;;;;;10331974;28;20223;-75
2023/07/15 05:37:21;;;;;;;1.30;1.10;;;;;;;;;;10311097;28;20698;-75
2023/07/15 05:42:22;;;;;;;1.20;1.20;;;;;;;;;;10334516;28;20216;-74
2023/07/15 05:47:23;;;;;;;1.67;1.40;;;;;;;;;;10327180;28;20230;-75
2023/07/15 05:52:25;;;;;;;1.30;1.20;;;;;;;;;;10322360;28;20220;-75
2023/07/15 05:57:26;;;;;;;1.13;1.13;;;;;;;;;;10333887;28;20208;-74
2023/07/15 06:02:27;;;;;;;1.20;1.20;;;;;;;;;;10326371;28;20216;-75
2023/07/15 06:07:28;;;;;;;1.23;1.23;;;;;;;;;;10332326;28;20279;-75
2023/07/15 06:12:30;;;;;;;1.17;1.17;;;;;;;;;;10341889;28;20590;-75
2023/07/15 06:17:31;;;;;;;1.85;1.45;;;;;;;;;;10333571;28;20243;-74
2023/07/15 06:22:32;;;;;;;1.95;1.05;;;;;;;;;;10339272;28;20765;-75
2023/07/15 06:27:33;;;;;;;3.72;1.17;;;;;;;;;;10334271;28;20220;-75
2023/07/15 06:32:35;;;;;;;2.20;1.70;;;;;;;;;;10326706;28;20289;-74
2023/07/15 06:37:36;;;;;;;0.98;0.98;;;;;;;;;;10324403;28;20303;-79
2023/07/15 06:42:37;;;;;;;2.15;1.10;;;;;;;;;;10325040;28;20221;-76
2023/07/15 06:47:39;;;;;;;0.90;0.90;;;;;;;;;;10322569;28;20208;-76
2023/07/15 06:52:40;;;;;;;1.25;1.25;;;;;;;;;;10307777;28;20231;-77
2023/07/15 06:57:41;;;;;;;1.20;1.20;;;;;;;;;;10309978;28;20212;-78
2023/07/15 07:02:42;;;;;;;2.20;1.00;;;;;;;;;;10311314;28;20247;-76
2023/07/15 07:07:43;;;;;;;3.80;1.30;;;;;;;;;;10321363;28;20240;-77
2023/07/15 07:12:44;;;;;;;1.08;1.02;;;;;;;;;;10317960;28;20273;-77
2023/07/15 07:17:45;;;;;;;1.00;1.00;;;;;;;;;;10317252;28;20212;-76
2023/07/15 07:22:46;;;;;;;1.13;1.13;;;;;;;;;;10324327;28;20220;-76
2023/07/15 07:27:47;;;;;;;4.35;1.20;;;;;;;;;;10328415;28;20221;-76
2023/07/15 07:32:48;;;;;;;1.13;1.08;;;;;;;;;;10328269;28;20219;-76
2023/07/15 07:37:50;;;;;;;0.90;0.90;;;;;;;;;;10314572;28;20590;-77
2023/07/15 07:42:51;;;;;;;0.90;0.90;;;;;;;;;;10312604;28;20307;-77
2023/07/15 07:47:52;;;;;;;1.33;1.08;;;;;;;;;;10309931;28;20588;-79
2023/07/15 07:52:53;;;;;;;0.90;0.90;;;;;;;;;;10313833;28;20310;-77
2023/07/15 07:57:54;;;;;;;1.13;1.13;;;;;;;;;;10309796;28;20209;-77
2023/07/15 08:02:55;;;;;;;3.42;1.00;;;;;;;;;;10322360;28;20597;-77
2023/07/15 08:07:57;;;;;;;0.90;0.90;;;;;;;;;;10307017;28;20319;-76
2023/07/15 08:12:58;;;;;;;0.80;0.80;;;;;;;;;;10321111;28;20992;-77
2023/07/15 08:17:59;;;;;;;1.10;1.10;;;;;;;;;;10326857;28;20215;-77
2023/07/15 08:23:00;;;;;;;0.80;0.80;;;;;;;;;;10303256;28;20231;-77
2023/07/15 08:28:01;;;;;;;0.70;0.70;;;;;;;;;;10291740;28;20308;-77
2023/07/15 08:33:06;;;;;;;0.93;0.93;;;;;;;;;;10323888;28;20577;-76
2023/07/15 08:38:07;;;;;;;1.00;1.00;;;;;;;;;;10290510;28;20676;-76
2023/07/15 08:43:08;;;;;;;0.82;0.75;;;;;;;;;;10333833;28;20220;-77
2023/07/15 08:48:10;;;;;;;3.20;0.80;;;;;;;;;;10327491;28;20808;-75
2023/07/15 08:53:14;;;;;;;0.90;0.90;;;;;;;;;;10314636;28;22456;-76
2023/07/15 08:58:15;;;;;;;0.52;0.52;;;;;;;;;;10326890;28;20769;-75
2023/07/15 09:03:16;;;;;;;0.50;0.50;;;;;;;;;;10309369;28;20220;-76
2023/07/15 09:08:17;;;;;;;1.95;0.60;;;;;;;;;;10319765;28;20741;-76
2023/07/15 09:13:25;;;;;;;1.25;0.95;;;;;;;;;;10318127;28;20251;-78
2023/07/15 09:18:26;;;;;;;3.03;1.10;;;;;;;;;;10310882;28;20208;-77
2023/07/15 09:23:29;;;;;;;0.43;0.43;;;;;;;;;;10297810;28;20216;-76
2023/07/15 09:28:30;;;;;;;2.60;0.85;;;;;;;;;;10333170;28;20216;-76
2023/07/15 09:33:33;;;;;;;8.57;0.70;;;;;;;;;;10313051;28;20230;-76
2023/07/15 09:38:35;;;;;;;0.50;0.50;;;;;;;;;;10327512;28;21420;-76
2023/07/15 09:43:47;;;;;;;0.50;0.50;;;;;;;;;;10315654;28;20216;-76
2023/07/15 09:48:49;;;;;;;0.60;0.60;;;;;;;;;;10314805;28;20216;-76
2023/07/15 09:53:51;;;;;;;1.73;0.60;;;;;;;;;;10327497;28;20220;-77
2023/07/15 09:58:55;;;;;;;0.60;0.60;;;;;;;;;;10329915;28;20204;-77
2023/07/15 10:04:00;;;;;;;0.47;0.40;;;;;;;;;;10331114;28;20760;-78
2023/07/15 10:09:03;;;;;;;0.32;0.32;;;;;;;;;;10336151;28;20259;-76
2023/07/15 10:14:05;;;;;;;1.00;0.50;;;;;;;;;;10321290;28;21011;-75
2023/07/15 10:19:06;;;;;;;0.40;0.40;;;;;;;;;;10317478;28;20310;-75
2023/07/15 10:24:11;;;;;;;0.73;0.50;;;;;;;;;;10329896;28;20227;-76
2023/07/15 10:29:12;;;;;;;0.50;0.50;;;;;;;;;;10319442;28;20220;-77
2023/07/15 10:34:15;;;;;;;0.40;0.40;;;;;;;;;;10336184;28;20334;-77
2023/07/15 10:39:19;;;;;;;0.77;0.30;;;;;;;;;;10336576;28;20215;-77
2023/07/15 10:44:24;;;;;;;1.88;0.30;;;;;;;;;;10322493;28;20673;-76
2023/07/15 10:49:25;;;;;;;0.20;0.20;;;;;;;;;;10309384;28;20216;-77
2023/07/15 10:54:27;;;;;;;0.35;0.35;;;;;;;;;;10313195;28;20220;-77
2023/07/15 10:59:35;;;;;;;1.42;0.40;;;;;;;;;;10322058;28;20214;-76
2023/07/15 11:04:37;;;;;;;0.28;0.28;;;;;;;;;;10303864;28;20220;-76
2023/07/15 11:09:39;;;;;;;1.95;0.40;;;;;;;;;;10320881;28;20236;-76
2023/07/15 11:14:42;;;;;;;2.50;0.40;;;;;;;;;;10321278;28;20231;-76
2023/07/15 11:19:43;;;;;;;0.50;0.50;;;;;;;;;;10315204;28;20213;-78
2023/07/15 11:24:46;;;;;;;0.98;0.60;;;;;;;;;;10308802;28;21206;-78
2023/07/15 11:29:56;;;;;;;0.50;0.50;;;;;;;;;;10322363;28;20216;-78
2023/07/15 11:34:57;;;;;;;1.98;0.40;;;;;;;;;;10326372;28;20987;-78
2023/07/15 11:39:59;;;;;;;0.30;0.30;;;;;;;;;;10314789;28;20223;-78
2023/07/15 11:45:00;;;;;;;0.50;0.50;;;;;;;;;;10325617;28;20220;-79
2023/07/15 11:50:02;;;;;;;1.60;0.47;;;;;;;;;;10326418;28;20250;-78
2023/07/15 11:55:04;;;;;;;0.43;0.43;;;;;;;;;;10308443;28;20224;-80
2023/07/15 12:00:05;;;;;;;1.67;0.52;;;;;;;;;;10324684;28;20270;-78
2023/07/15 12:05:07;;;;;;;0.47;0.47;;;;;;;;;;10320933;28;20243;-80
2023/07/15 12:10:08;;;;;;;0.77;0.50;;;;;;;;;;10294168;28;20647;-77
2023/07/15 12:15:09;;;;;;;0.52;0.45;;;;;;;;;;10273352;28;20220;-77
2023/07/15 12:20:11;;;;;;;0.50;0.50;;;;;;;;;;10291345;28;20180;-77
2023/07/15 12:25:13;;;;;;;0.60;0.60;;;;;;;;;;10296635;28;20216;-78
2023/07/15 12:30:14;;;;;;;1.20;0.70;;;;;;;;;;10290056;28;20239;-83
2023/07/15 12:35:15;;;;;;;2.55;0.85;;;;;;;;;;10300389;28;20208;-77
2023/07/15 12:40:16;;;;;;;0.60;0.60;;;;;;;;;;10293801;28;20276;-79
2023/07/15 12:45:17;;;;;;;1.50;0.77;;;;;;;;;;10303209;28;20908;-77
2023/07/15 12:50:18;;;;;;;1.27;0.70;;;;;;;;;;10318613;28;20958;-78
2023/07/15 12:55:19;;;;;;;1.00;0.68;;;;;;;;;;10303173;28;20235;-77
2023/07/15 13:00:20;;;;;;;0.60;0.60;;;;;;;;;;10304717;28;20181;-77
2023/07/15 13:05:22;;;;;;;0.75;0.70;;;;;;;;;;10302258;28;20213;-76
2023/07/15 13:10:23;;;;;;;0.60;0.60;;;;;;;;;;10316889;28;21403;-77
2023/07/15 13:15:24;;;;;;;1.77;0.80;;;;;;;;;;10304124;28;20209;-77
2023/07/15 13:20:25;;;;;;;0.63;0.63;;;;;;;;;;10304929;28;20216;-77
2023/07/15 13:25:26;;;;;;;0.95;0.68;;;;;;;;;;10314453;28;20231;-78
2023/07/15 13:30:27;;;;;;;0.60;0.60;;;;;;;;;;10304912;28;20221;-78
2023/07/15 13:35:28;;;;;;;0.70;0.70;;;;;;;;;;10303425;28;20336;-79
2023/07/15 13:40:29;;;;;;;0.50;0.50;;;;;;;;;;10314694;28;20307;-78
2023/07/15 13:45:31;;;;;;;3.13;0.63;;;;;;;;;;10310972;28;20321;-77
2023/07/15 13:50:32;;;;;;;1.27;0.80;;;;;;;;;;10309622;28;20263;-77
2023/07/15 13:55:33;;;;;;;0.88;0.63;;;;;;;;;;10306442;28;20685;-77
2023/07/15 14:00:34;;;;;;;0.55;0.55;;;;;;;;;;10299882;28;20220;-78
2023/07/15 14:05:35;;;;;;;1.80;0.98;;;;;;;;;;10285283;28;20217;-77
2023/07/15 14:10:36;;;;;;;0.70;0.70;;;;;;;;;;10299960;28;20224;-77
2023/07/15 14:15:37;;;;;;;0.65;0.65;;;;;;;;;;10315321;28;20255;-77
2023/07/15 14:20:38;;;;;;;0.68;0.60;;;;;;;;;;10301300;28;20715;-78
2023/07/15 14:25:39;;;;;;;1.38;0.63;;;;;;;;;;10301091;28;20225;-78
2023/07/15 14:30:40;;;;;;;0.60;0.60;;;;;;;;;;10320005;28;20706;-78
2023/07/15 14:35:42;;;;;;;0.50;0.50;;;;;;;;;;10289028;28;20209;-78
2023/07/15 14:40:46;;;;;;;0.82;0.82;;;;;;;;;;10273091;28;20243;-78
2023/07/15 14:45:47;;;;;;;5.70;0.65;;;;;;;;;;10288652;28;20270;-78
2023/07/15 14:50:48;;;;;;;0.50;0.50;;;;;;;;;;10275307;28;20259;-76
2023/07/15 14:55:49;;;;;;;0.52;0.52;;;;;;;;;;10281860;28;20278;-77
2023/07/15 15:00:50;;;;;;;2.97;0.52;;;;;;;;;;10287848;28;20525;-77
2023/07/15 15:05:51;;;;;;;0.50;0.50;;;;;;;;;;10290780;28;20270;-77
2023/07/15 15:10:54;;;;;;;1.67;0.60;;;;;;;;;;10285602;28;20228;-76
2023/07/15 15:15:55;;;;;;;0.50;0.50;;;;;;;;;;10298153;28;20213;-76
2023/07/15 15:20:56;;;;;;;0.50;0.50;;;;;;;;;;10299048;28;20227;-76
2023/07/15 15:25:57;;;;;;;0.60;0.60;;;;;;;;;;10296570;28;20216;-76
2023/07/15 15:30:59;;;;;;;0.60;0.60;;;;;;;;;;10283559;28;20358;-77
2023/07/15 15:36:00;;;;;;;0.40;0.40;;;;;;;;;;10281018;28;20255;-78
2023/07/15 15:41:01;;;;;;;0.60;0.60;;;;;;;;;;10277368;28;20220;-76
2023/07/15 15:46:02;;;;;;;0.50;0.50;;;;;;;;;;10287638;28;21474;-77
2023/07/15 15:51:03;;;;;;;0.50;0.50;;;;;;;;;;10280939;28;20228;-77
2023/07/15 15:56:04;;;;;;;2.08;0.60;;;;;;;;;;10278946;28;20639;-77
2023/07/15 16:01:05;;;;;;;0.50;0.50;;;;;;;;;;10286764;28;20247;-77
2023/07/15 16:06:07;;;;;;;0.50;0.50;;;;;;;;;;10296797;28;20221;-79
2023/07/15 16:11:08;;;;;;;0.60;0.60;;;;;;;;;;10324012;28;20571;-76
2023/07/15 16:16:09;;;;;;;0.50;0.50;;;;;;;;;;10319393;28;20216;-75
2023/07/15 16:21:10;;;;;;;0.50;0.50;;;;;;;;;;10303667;28;20781;-76
2023/07/15 16:26:11;;;;;;;0.63;0.63;;;;;;;;;;10317374;28;20293;-76
2023/07/15 16:31:13;;;;;;;0.73;0.57;;;;;;;;;;10325289;28;20294;-75
2023/07/15 16:36:14;;;;;;;0.60;0.60;;;;;;;;;;10320593;28;20208;-75
2023/07/15 16:41:15;;;;;;;0.60;0.60;;;;;;;;;;10309335;28;20246;-75
2023/07/15 16:46:17;;;;;;;1.80;0.40;;;;;;;;;;10297907;28;20220;-74
2023/07/15 16:51:18;;;;;;;0.82;0.80;;;;;;;;;;10316082;28;20267;-74
2023/07/15 16:56:19;;;;;;;1.00;0.73;;;;;;;;;;10300139;28;20223;-77
2023/07/15 17:01:20;;;;;;;0.90;0.90;;;;;;;;;;10318522;28;20220;-77
2023/07/15 17:06:21;;;;;;;0.70;0.70;;;;;;;;;;10320708;28;20605;-76
2023/07/15 17:11:22;;;;;;;1.02;1.02;;;;;;;;;;10312076;28;20217;-77
2023/07/15 17:16:24;;;;;;;1.30;1.30;;;;;;;;;;10303735;28;20212;-76
2023/07/15 17:21:26;;;;;;;0.80;0.80;;;;;;;;;;10324558;28;20301;-77
2023/07/15 17:26:27;;;;;;;1.13;1.10;;;;;;;;;;10325995;28;20885;-76
2023/07/15 17:31:28;;;;;;;1.30;1.30;;;;;;;;;;10320223;28;20443;-77
2023/07/15 17:36:29;;;;;;;1.25;1.15;;;;;;;;;;10297737;28;20307;-79
2023/07/15 17:41:30;;;;;;;2.80;1.00;;;;;;;;;;10206119;28;20232;-79
2023/07/15 17:46:32;;;;;;;1.25;1.13;;;;;;;;;;10209655;28;20323;-81
2023/07/15 17:51:33;;;;;;;1.08;1.08;;;;;;;;;;10205861;28;20885;-78
2023/07/15 17:56:34;;;;;;;2.15;1.27;;;;;;;;;;10223950;28;20252;-78
2023/07/15 18:01:35;;;;;;;1.35;1.25;;;;;;;;;;10211760;28;22501;-78
2023/07/15 18:06:36;;;;;;;2.30;1.42;;;;;;;;;;10203824;28;20793;-79
2023/07/15 18:11:38;;;;;;;2.35;2.25;;;;;;;;;;10202472;28;20220;-80
2023/07/15 18:16:39;;;;;;;2.42;2.33;;;;;;;;;;10192477;28;20248;-79
2023/07/15 18:21:40;;;;;;;1.67;1.58;;;;;;;;;;10187039;28;20216;-80
2023/07/15 18:26:42;;;;;;;1.13;1.13;;;;;;;;;;10188865;28;20227;-77
2023/07/15 18:31:43;;;;;;;1.10;1.10;;;;;;;;;;10186314;28;20604;-79
2023/07/15 18:36:44;;;;;;;1.30;1.30;;;;;;;;;;10202646;28;21736;-81
2023/07/15 18:41:45;;;;;;;0.80;0.80;;;;;;;;;;10198590;28;20714;-81
2023/07/15 18:46:46;;;;;;;0.73;0.73;;;;;;;;;;10197606;28;20224;-79
2023/07/15 18:51:47;;;;;;;5.22;1.38;;;;;;;;;;10203229;28;20220;-79
2023/07/15 18:56:48;;;;;;;0.90;0.90;;;;;;;;;;10204629;28;21847;-80
2023/07/15 19:01:50;;;;;;;0.73;0.73;;;;;;;;;;10193429;28;20227;-80
2023/07/15 19:06:51;;;;;;;5.72;0.80;;;;;;;;;;10170039;28;20951;-81
2023/07/15 19:11:52;;;;;;;0.70;0.70;;;;;;;;;;10206854;28;20235;-79
2023/07/15 19:16:53;;;;;;;1.48;0.68;;;;;;;;;;10183341;28;20907;-79
2023/07/15 19:21:54;;;;;;;2.17;0.88;;;;;;;;;;10195288;28;21138;-80
2023/07/15 19:26:55;;;;;;;0.52;0.52;;;;;;;;;;10178644;28;21257;-82
2023/07/15 19:31:56;;;;;;;0.50;0.50;;;;;;;;;;10183162;28;20857;-79
2023/07/15 19:36:57;;;;;;;0.90;0.55;;;;;;;;;;10180490;28;20204;-79
2023/07/15 19:41:58;;;;;;;0.60;0.60;;;;;;;;;;10176747;28;20259;-80
2023/07/15 19:46:59;;;;;;;0.75;0.75;;;;;;;;;;10200928;28;20228;-80
2023/07/15 19:52:00;;;;;;;0.70;0.70;;;;;;;;;;10212586;28;20221;-81
2023/07/15 19:57:01;;;;;;;2.85;0.88;;;;;;;;;;10196272;28;20751;-81
2023/07/15 20:02:03;;;;;;;0.77;0.77;;;;;;;;;;10211359;28;21779;-82
2023/07/15 20:07:04;;;;;;;0.80;0.80;;;;;;;;;;10218616;28;20224;-83
2023/07/15 20:12:05;;;;;;;1.30;1.20;;;;;;;;;;10203482;28;21025;-80
2023/07/15 20:17:07;;;;;;;1.02;1.02;;;;;;;;;;10192224;28;20216;-80
2023/07/15 20:22:08;;;;;;;2.45;1.67;;;;;;;;;;10194286;28;20219;-78
2023/07/15 20:27:09;;;;;;;1.10;1.10;;;;;;;;;;10196894;28;20223;-79
2023/07/15 20:32:12;;;;;;;0.80;0.80;;;;;;;;;;10180355;28;20231;-78
2023/07/15 20:37:14;;;;;;;0.80;0.80;;;;;;;;;;10192164;28;20436;-78
2023/07/15 20:42:15;;;;;;;0.70;0.70;;;;;;;;;;10179359;28;20310;-81
2023/07/15 20:47:17;;;;;;;0.82;0.82;;;;;;;;;;10198299;28;20267;-77
2023/07/15 20:52:19;;;;;;;0.65;0.65;;;;;;;;;;10206577;28;20365;-79
2023/07/15 20:57:20;;;;;;;0.70;0.70;;;;;;;;;;10190266;28;22416;-81
2023/07/15 21:02:21;;;;;;;0.98;0.88;;;;;;;;;;10203103;28;20242;-80
2023/07/15 21:07:22;;;;;;;1.02;0.98;;;;;;;;;;10203167;28;22547;-81
2023/07/15 21:12:23;;;;;;;0.77;0.77;;;;;;;;;;10203248;28;20236;-78
2023/07/15 21:17:24;;;;;;;1.45;0.80;;;;;;;;;;10211487;28;20955;-78
2023/07/15 21:22:25;;;;;;;1.70;0.93;;;;;;;;;;10201279;28;20773;-78
2023/07/15 21:27:26;;;;;;;0.60;0.60;;;;;;;;;;10177699;28;20216;-78
2023/07/15 21:32:27;;;;;;;1.30;1.02;;;;;;;;;;10196378;28;20758;-78
2023/07/15 21:37:28;;;;;;;0.50;0.50;;;;;;;;;;10197070;28;20216;-81
2023/07/15 21:42:30;;;;;;;0.55;0.55;;;;;;;;;;10204115;28;20231;-78
2023/07/15 21:47:31;;;;;;;0.73;0.73;;;;;;;;;;10210580;28;20744;-78
2023/07/15 21:52:32;;;;;;;0.90;0.90;;;;;;;;;;10186706;28;22343;-81
2023/07/15 21:57:33;;;;;;;0.80;0.80;;;;;;;;;;10195319;28;20533;-78
2023/07/15 22:02:34;;;;;;;0.70;0.65;;;;;;;;;;10191564;28;20227;-80
2023/07/15 22:07:35;;;;;;;0.70;0.70;;;;;;;;;;10199474;28;20718;-79
2023/07/15 22:12:36;;;;;;;0.80;0.80;;;;;;;;;;10195463;28;20231;-81
2023/07/15 22:17:37;;;;;;;0.57;0.57;;;;;;;;;;10195712;28;20216;-79
2023/07/15 22:22:38;;;;;;;0.50;0.50;;;;;;;;;;10196837;28;21305;-78
2023/07/15 22:27:40;;;;;;;0.73;0.73;;;;;;;;;;10179971;28;20223;-79
2023/07/15 22:32:41;;;;;;;4.15;0.90;;;;;;;;;;10191778;28;20220;-78
2023/07/15 22:37:42;;;;;;;0.60;0.60;;;;;;;;;;10202197;28;20773;-81
2023/07/15 22:42:43;;;;;;;0.80;0.80;;;;;;;;;;10188584;28;20223;-78
2023/07/15 22:47:44;;;;;;;0.82;0.82;;;;;;;;;;10186489;28;20220;-78
2023/07/15 22:52:45;;;;;;;1.95;1.27;;;;;;;;;;10211514;28;20220;-81
2023/07/15 22:57:46;;;;;;;1.23;0.90;;;;;;;;;;10204315;28;20224;-79
2023/07/15 23:02:47;;;;;;;0.85;0.73;;;;;;;;;;10167675;28;20306;-79
2023/07/15 23:07:48;;;;;;;0.82;0.80;;;;;;;;;;10170742;28;20656;-79
2023/07/15 23:12:49;;;;;;;0.77;0.77;;;;;;;;;;10201770;28;20277;-78
2023/07/15 23:17:50;;;;;;;0.70;0.70;;;;;;;;;;10196313;28;20239;-78
2023/07/15 23:22:51;;;;;;;4.25;1.20;;;;;;;;;;10193767;28;20308;-77
2023/07/15 23:27:52;;;;;;;1.35;0.82;;;;;;;;;;10193548;28;20216;-78
2023/07/15 23:32:53;;;;;;;1.05;1.05;;;;;;;;;;10194030;28;20216;-77
2023/07/15 23:37:54;;;;;;;1.10;1.10;;;;;;;;;;10198220;28;20267;-78
2023/07/15 23:42:55;;;;;;;2.90;2.30;;;;;;;;;;10202478;28;20224;-77
2023/07/15 23:47:56;;;;;;;3.60;1.77;;;;;;;;;;10210774;28;20260;-77
2023/07/15 23:52:57;;;;;;;1.33;1.27;;;;;;;;;;10183078;28;20287;-79
2023/07/15 23:57:59;;;;;;;0.90;0.90;;;;;;;;;;10198054;28;20583;-77
